KFMN/FMN METAR and TAF weather

Enter ICAO airport designator
Station Type Date Time Source
KFMN METAR 2018/12/12 11:53 UTC NOAA

KFMN 121153Z AUTO 06004KT 10SM CLR M06/M07 A3009 RMK AO2 SLP207 T10561067 11017 21056 58010


Station Type Date Time Source
KFMN Decoded METAR 2018/12/12 11:53 UTC NOAA

FARMINGTON FOUR CORNERS, NM, United States (KFMN) 36-45N 108-14W 1685M
Dec 12, 2018 - 06:53 AM EST / 2018.12.12 1153 UTC
Wind: from the ENE (060 degrees) at 5 MPH (4 KT):0
Visibility: 10 mile(s):0
Sky conditions: clear
Temperature: 21.9 F (-5.6 C)
Windchill: 15 F (-9 C):1
Dew Point: 19.9 F (-6.7 C)
Relative Humidity: 91%
Pressure (altimeter): 30.09 in. Hg (1018 hPa)
Pressure tendency: 0.03 inches (1.0 hPa) lower than three hours ago
ob: KFMN 121153Z AUTO 06004KT 10SM CLR M06/M07 A3009 RMK AO2 SLP207 T10561067 11017 21056 58010
cycle: 12

Station Type Date Time Source
KFMN TAF 2018/12/12 12:36 UTC NOAA

TAF KFMN 121134Z 1212/1312 09007KT P6SM SKC
FM121900 29011G19KT P6SM SCT200
FM122200 29025G35KT P6SM BKN120
FM130500 28020G30KT P6SM SCT100
FM131000 28015G25KT P6SM FEW100


Example: see airport list